sensor_id;sensor_type;location;lat;lon;timestamp;P1;durP1;ratioP1;P2;durP2;ratioP2
40176;SDS011;31511;46.176;9.874;2023-12-28T00:01:18;17.23;;;9.65;;
40176;SDS011;31511;46.176;9.874;2023-12-28T00:06:47;39.20;;;20.13;;
40176;SDS011;31511;46.176;9.874;2023-12-28T00:09:32;40.35;;;17.13;;
40176;SDS011;31511;46.176;9.874;2023-12-28T00:12:16;12.65;;;7.95;;
40176;SDS011;31511;46.176;9.874;2023-12-28T00:17:46;24.52;;;15.68;;
40176;SDS011;31511;46.176;9.874;2023-12-28T00:23:15;28.75;;;15.50;;
40176;SDS011;31511;46.176;9.874;2023-12-28T00:28:44;15.02;;;9.45;;
40176;SDS011;31511;46.176;9.874;2023-12-28T00:31:29;13.32;;;7.60;;
40176;SDS011;31511;46.176;9.874;2023-12-28T00:34:13;14.30;;;7.78;;
40176;SDS011;31511;46.176;9.874;2023-12-28T00:36:58;23.52;;;13.07;;
40176;SDS011;31511;46.176;9.874;2023-12-28T00:39:43;23.92;;;13.45;;
40176;SDS011;31511;46.176;9.874;2023-12-28T00:42:28;20.65;;;11.43;;
40176;SDS011;31511;46.176;9.874;2023-12-28T00:45:12;38.30;;;11.63;;
40176;SDS011;31511;46.176;9.874;2023-12-28T00:47:57;21.67;;;12.50;;
40176;SDS011;31511;46.176;9.874;2023-12-28T00:50:41;21.80;;;13.63;;
40176;SDS011;31511;46.176;9.874;2023-12-28T00:56:11;23.30;;;12.45;;
40176;SDS011;31511;46.176;9.874;2023-12-28T00:58:56;25.00;;;13.60;;
40176;SDS011;31511;46.176;9.874;2023-12-28T01:04:25;18.20;;;11.02;;
40176;SDS011;31511;46.176;9.874;2023-12-28T01:07:10;19.42;;;10.50;;
40176;SDS011;31511;46.176;9.874;2023-12-28T01:12:39;19.17;;;11.88;;
40176;SDS011;31511;46.176;9.874;2023-12-28T01:18:09;16.17;;;10.75;;
40176;SDS011;31511;46.176;9.874;2023-12-28T01:20:53;18.92;;;9.38;;
40176;SDS011;31511;46.176;9.874;2023-12-28T01:23:38;14.88;;;8.85;;
40176;SDS011;31511;46.176;9.874;2023-12-28T01:26:23;15.68;;;9.82;;
40176;SDS011;31511;46.176;9.874;2023-12-28T01:29:07;15.77;;;9.82;;
40176;SDS011;31511;46.176;9.874;2023-12-28T01:34:37;16.42;;;8.13;;
40176;SDS011;31511;46.176;9.874;2023-12-28T01:37:21;23.40;;;9.60;;
40176;SDS011;31511;46.176;9.874;2023-12-28T01:40:06;13.07;;;7.45;;
40176;SDS011;31511;46.176;9.874;2023-12-28T01:42:51;16.83;;;9.60;;
40176;SDS011;31511;46.176;9.874;2023-12-28T01:48:20;12.40;;;8.35;;
40176;SDS011;31511;46.176;9.874;2023-12-28T01:51:05;14.98;;;9.05;;
40176;SDS011;31511;46.176;9.874;2023-12-28T01:53:50;13.88;;;9.65;;
40176;SDS011;31511;46.176;9.874;2023-12-28T01:56:36;18.35;;;10.23;;
40176;SDS011;31511;46.176;9.874;2023-12-28T01:59:21;15.43;;;9.77;;
40176;SDS011;31511;46.176;9.874;2023-12-28T02:04:51;14.45;;;8.30;;
40176;SDS011;31511;46.176;9.874;2023-12-28T02:07:36;14.73;;;8.35;;
40176;SDS011;31511;46.176;9.874;2023-12-28T02:10:20;19.95;;;9.48;;
40176;SDS011;31511;46.176;9.874;2023-12-28T02:13:05;13.55;;;8.90;;
40176;SDS011;31511;46.176;9.874;2023-12-28T02:18:36;15.45;;;8.13;;
40176;SDS011;31511;46.176;9.874;2023-12-28T02:21:22;15.07;;;8.20;;
40176;SDS011;31511;46.176;9.874;2023-12-28T02:24:08;16.65;;;8.30;;
40176;SDS011;31511;46.176;9.874;2023-12-28T02:27:00;14.77;;;7.13;;
40176;SDS011;31511;46.176;9.874;2023-12-28T02:29:44;12.88;;;8.25;;
40176;SDS011;31511;46.176;9.874;2023-12-28T02:35:33;16.08;;;8.15;;
40176;SDS011;31511;46.176;9.874;2023-12-28T02:38:18;16.48;;;8.23;;
40176;SDS011;31511;46.176;9.874;2023-12-28T02:41:04;11.05;;;7.45;;
40176;SDS011;31511;46.176;9.874;2023-12-28T02:43:50;14.07;;;8.13;;
40176;SDS011;31511;46.176;9.874;2023-12-28T02:46:35;18.35;;;8.80;;
40176;SDS011;31511;46.176;9.874;2023-12-28T02:52:04;13.60;;;7.80;;
40176;SDS011;31511;46.176;9.874;2023-12-28T02:54:49;15.23;;;8.00;;
40176;SDS011;31511;46.176;9.874;2023-12-28T02:57:34;14.40;;;9.20;;
40176;SDS011;31511;46.176;9.874;2023-12-28T03:00:21;13.70;;;7.97;;
40176;SDS011;31511;46.176;9.874;2023-12-28T03:03:06;10.50;;;8.25;;
40176;SDS011;31511;46.176;9.874;2023-12-28T03:05:50;12.88;;;6.95;;
40176;SDS011;31511;46.176;9.874;2023-12-28T03:08:35;10.98;;;8.15;;
40176;SDS011;31511;46.176;9.874;2023-12-28T03:14:04;13.15;;;7.88;;
40176;SDS011;31511;46.176;9.874;2023-12-28T03:16:49;14.23;;;7.40;;
40176;SDS011;31511;46.176;9.874;2023-12-28T03:19:33;10.77;;;7.07;;
40176;SDS011;31511;46.176;9.874;2023-12-28T03:22:20;15.27;;;8.18;;
40176;SDS011;31511;46.176;9.874;2023-12-28T03:25:05;13.40;;;8.50;;
40176;SDS011;31511;46.176;9.874;2023-12-28T03:27:49;11.43;;;7.15;;
40176;SDS011;31511;46.176;9.874;2023-12-28T03:30:34;11.63;;;7.97;;
40176;SDS011;31511;46.176;9.874;2023-12-28T03:36:03;12.43;;;7.90;;
40176;SDS011;31511;46.176;9.874;2023-12-28T03:41:33;12.48;;;7.10;;
40176;SDS011;31511;46.176;9.874;2023-12-28T03:47:02;12.93;;;7.03;;
40176;SDS011;31511;46.176;9.874;2023-12-28T03:52:31;11.18;;;7.00;;
40176;SDS011;31511;46.176;9.874;2023-12-28T03:55:16;14.50;;;7.65;;
40176;SDS011;31511;46.176;9.874;2023-12-28T03:58:00;15.60;;;8.23;;
40176;SDS011;31511;46.176;9.874;2023-12-28T04:00:45;8.57;;;5.90;;
40176;SDS011;31511;46.176;9.874;2023-12-28T04:03:32;11.32;;;5.82;;
40176;SDS011;31511;46.176;9.874;2023-12-28T04:06:17;6.63;;;4.57;;
40176;SDS011;31511;46.176;9.874;2023-12-28T04:09:01;8.60;;;5.22;;
40176;SDS011;31511;46.176;9.874;2023-12-28T04:14:31;9.65;;;5.15;;
40176;SDS011;31511;46.176;9.874;2023-12-28T04:17:15;10.40;;;5.88;;
40176;SDS011;31511;46.176;9.874;2023-12-28T04:22:45;12.02;;;6.05;;
40176;SDS011;31511;46.176;9.874;2023-12-28T04:25:29;11.73;;;7.10;;
40176;SDS011;31511;46.176;9.874;2023-12-28T04:28:14;10.13;;;6.53;;
40176;SDS011;31511;46.176;9.874;2023-12-28T04:30:58;9.48;;;5.70;;
40176;SDS011;31511;46.176;9.874;2023-12-28T04:33:45;9.43;;;5.57;;
40176;SDS011;31511;46.176;9.874;2023-12-28T04:36:30;9.02;;;5.65;;
40176;SDS011;31511;46.176;9.874;2023-12-28T04:39:15;10.23;;;5.45;;
40176;SDS011;31511;46.176;9.874;2023-12-28T04:44:44;9.45;;;5.78;;
40176;SDS011;31511;46.176;9.874;2023-12-28T04:47:28;9.48;;;4.65;;
40176;SDS011;31511;46.176;9.874;2023-12-28T04:50:13;8.20;;;4.72;;
40176;SDS011;31511;46.176;9.874;2023-12-28T04:52:58;7.32;;;4.68;;
40176;SDS011;31511;46.176;9.874;2023-12-28T04:58:27;9.15;;;4.78;;
40176;SDS011;31511;46.176;9.874;2023-12-28T05:03:56;12.95;;;6.97;;
40176;SDS011;31511;46.176;9.874;2023-12-28T05:09:26;7.00;;;4.63;;
40176;SDS011;31511;46.176;9.874;2023-12-28T05:14:55;9.38;;;5.25;;
40176;SDS011;31511;46.176;9.874;2023-12-28T05:17:40;9.55;;;6.05;;
40176;SDS011;31511;46.176;9.874;2023-12-28T05:20:25;12.00;;;6.40;;
40176;SDS011;31511;46.176;9.874;2023-12-28T05:23:09;7.57;;;5.03;;
40176;SDS011;31511;46.176;9.874;2023-12-28T05:25:54;8.93;;;5.07;;
40176;SDS011;31511;46.176;9.874;2023-12-28T05:28:39;9.85;;;5.82;;
40176;SDS011;31511;46.176;9.874;2023-12-28T05:31:23;9.30;;;5.55;;
40176;SDS011;31511;46.176;9.874;2023-12-28T05:34:08;8.70;;;4.88;;
40176;SDS011;31511;46.176;9.874;2023-12-28T05:36:54;13.52;;;6.22;;
40176;SDS011;31511;46.176;9.874;2023-12-28T05:42:23;10.10;;;5.90;;
40176;SDS011;31511;46.176;9.874;2023-12-28T05:45:08;11.55;;;5.43;;
40176;SDS011;31511;46.176;9.874;2023-12-28T05:47:53;9.07;;;5.80;;
40176;SDS011;31511;46.176;9.874;2023-12-28T05:50:37;8.95;;;5.53;;
40176;SDS011;31511;46.176;9.874;2023-12-28T05:53:24;9.10;;;5.20;;
40176;SDS011;31511;46.176;9.874;2023-12-28T05:56:09;9.50;;;5.78;;
40176;SDS011;31511;46.176;9.874;2023-12-28T06:01:42;6.80;;;4.35;;
40176;SDS011;31511;46.176;9.874;2023-12-28T06:04:27;8.77;;;4.95;;
40176;SDS011;31511;46.176;9.874;2023-12-28T06:07:11;11.63;;;4.93;;
40176;SDS011;31511;46.176;9.874;2023-12-28T06:12:41;10.02;;;4.88;;
40176;SDS011;31511;46.176;9.874;2023-12-28T06:15:26;8.85;;;4.80;;
40176;SDS011;31511;46.176;9.874;2023-12-28T06:18:11;12.35;;;7.57;;
40176;SDS011;31511;46.176;9.874;2023-12-28T06:20:55;13.07;;;5.70;;
40176;SDS011;31511;46.176;9.874;2023-12-28T06:26:25;9.43;;;5.40;;
40176;SDS011;31511;46.176;9.874;2023-12-28T06:29:10;7.40;;;4.47;;
40176;SDS011;31511;46.176;9.874;2023-12-28T06:31:54;9.40;;;6.07;;
40176;SDS011;31511;46.176;9.874;2023-12-28T06:37:24;8.85;;;5.70;;
40176;SDS011;31511;46.176;9.874;2023-12-28T06:40:10;8.68;;;5.15;;
40176;SDS011;31511;46.176;9.874;2023-12-28T06:42:55;8.60;;;5.43;;
40176;SDS011;31511;46.176;9.874;2023-12-28T06:45:39;9.73;;;5.25;;
40176;SDS011;31511;46.176;9.874;2023-12-28T06:51:10;12.70;;;5.82;;
40176;SDS011;31511;46.176;9.874;2023-12-28T06:54:00;9.23;;;5.40;;
40176;SDS011;31511;46.176;9.874;2023-12-28T06:59:29;9.20;;;5.55;;
40176;SDS011;31511;46.176;9.874;2023-12-28T07:02:14;7.68;;;4.45;;
40176;SDS011;31511;46.176;9.874;2023-12-28T07:07:43;9.55;;;5.43;;
40176;SDS011;31511;46.176;9.874;2023-12-28T07:10:27;7.68;;;3.90;;
40176;SDS011;31511;46.176;9.874;2023-12-28T07:13:12;12.60;;;5.75;;
40176;SDS011;31511;46.176;9.874;2023-12-28T07:15:56;10.00;;;5.25;;
40176;SDS011;31511;46.176;9.874;2023-12-28T07:18:41;8.40;;;5.22;;
40176;SDS011;31511;46.176;9.874;2023-12-28T07:21:26;8.27;;;4.72;;
40176;SDS011;31511;46.176;9.874;2023-12-28T07:24:10;6.85;;;4.70;;
40176;SDS011;31511;46.176;9.874;2023-12-28T07:26:55;11.13;;;6.18;;
40176;SDS011;31511;46.176;9.874;2023-12-28T07:32:25;10.60;;;5.30;;
40176;SDS011;31511;46.176;9.874;2023-12-28T07:35:10;10.15;;;6.97;;
40176;SDS011;31511;46.176;9.874;2023-12-28T07:37:55;11.48;;;6.40;;
40176;SDS011;31511;46.176;9.874;2023-12-28T07:43:24;10.68;;;5.35;;
40176;SDS011;31511;46.176;9.874;2023-12-28T07:46:08;12.70;;;6.57;;
40176;SDS011;31511;46.176;9.874;2023-12-28T07:48:53;10.25;;;5.90;;
40176;SDS011;31511;46.176;9.874;2023-12-28T07:54:23;8.82;;;5.97;;
40176;SDS011;31511;46.176;9.874;2023-12-28T07:57:07;23.80;;;7.50;;
40176;SDS011;31511;46.176;9.874;2023-12-28T08:02:37;12.25;;;6.13;;
40176;SDS011;31511;46.176;9.874;2023-12-28T08:05:22;9.15;;;5.80;;
40176;SDS011;31511;46.176;9.874;2023-12-28T08:08:06;12.93;;;5.68;;
40176;SDS011;31511;46.176;9.874;2023-12-28T08:10:51;9.40;;;4.97;;
40176;SDS011;31511;46.176;9.874;2023-12-28T08:16:20;8.48;;;5.07;;
40176;SDS011;31511;46.176;9.874;2023-12-28T08:19:05;10.35;;;5.53;;
40176;SDS011;31511;46.176;9.874;2023-12-28T08:21:49;7.00;;;4.72;;
40176;SDS011;31511;46.176;9.874;2023-12-28T08:27:19;9.07;;;4.88;;
40176;SDS011;31511;46.176;9.874;2023-12-28T08:32:49;9.30;;;5.57;;
40176;SDS011;31511;46.176;9.874;2023-12-28T08:35:33;13.07;;;7.00;;
40176;SDS011;31511;46.176;9.874;2023-12-28T08:41:02;12.88;;;6.43;;
40176;SDS011;31511;46.176;9.874;2023-12-28T08:43:53;16.75;;;6.63;;
40176;SDS011;31511;46.176;9.874;2023-12-28T08:46:38;15.32;;;8.88;;
40176;SDS011;31511;46.176;9.874;2023-12-28T08:49:22;18.42;;;7.85;;
40176;SDS011;31511;46.176;9.874;2023-12-28T08:52:07;13.45;;;7.30;;
40176;SDS011;31511;46.176;9.874;2023-12-28T08:57:36;14.68;;;6.75;;
40176;SDS011;31511;46.176;9.874;2023-12-28T09:03:05;10.23;;;5.72;;
40176;SDS011;31511;46.176;9.874;2023-12-28T09:05:50;9.10;;;6.05;;
40176;SDS011;31511;46.176;9.874;2023-12-28T09:08:35;10.40;;;5.35;;
40176;SDS011;31511;46.176;9.874;2023-12-28T09:11:20;9.18;;;5.55;;
40176;SDS011;31511;46.176;9.874;2023-12-28T09:14:05;10.27;;;5.22;;
40176;SDS011;31511;46.176;9.874;2023-12-28T09:16:49;8.55;;;5.85;;
40176;SDS011;31511;46.176;9.874;2023-12-28T09:19:34;8.13;;;4.70;;
40176;SDS011;31511;46.176;9.874;2023-12-28T09:22:18;11.43;;;6.30;;
40176;SDS011;31511;46.176;9.874;2023-12-28T09:25:03;12.00;;;7.10;;
40176;SDS011;31511;46.176;9.874;2023-12-28T09:27:49;8.25;;;5.95;;
40176;SDS011;31511;46.176;9.874;2023-12-28T09:30:33;12.93;;;6.28;;
40176;SDS011;31511;46.176;9.874;2023-12-28T09:33:18;11.43;;;6.25;;
40176;SDS011;31511;46.176;9.874;2023-12-28T09:36:03;10.70;;;4.93;;
40176;SDS011;31511;46.176;9.874;2023-12-28T09:38:49;8.73;;;5.68;;
40176;SDS011;31511;46.176;9.874;2023-12-28T09:41:36;12.02;;;5.88;;
40176;SDS011;31511;46.176;9.874;2023-12-28T09:44:21;12.23;;;6.18;;
40176;SDS011;31511;46.176;9.874;2023-12-28T09:47:08;8.68;;;5.85;;
40176;SDS011;31511;46.176;9.874;2023-12-28T09:49:55;10.93;;;6.25;;
40176;SDS011;31511;46.176;9.874;2023-12-28T09:52:40;12.52;;;5.50;;
40176;SDS011;31511;46.176;9.874;2023-12-28T09:55:26;11.73;;;5.68;;
40176;SDS011;31511;46.176;9.874;2023-12-28T09:58:10;9.98;;;6.78;;
40176;SDS011;31511;46.176;9.874;2023-12-28T10:00:56;10.20;;;6.47;;
40176;SDS011;31511;46.176;9.874;2023-12-28T10:03:41;10.55;;;6.38;;
40176;SDS011;31511;46.176;9.874;2023-12-28T10:06:26;15.18;;;6.30;;
40176;SDS011;31511;46.176;9.874;2023-12-28T10:09:10;13.90;;;7.18;;
40176;SDS011;31511;46.176;9.874;2023-12-28T10:11:56;16.70;;;6.65;;
40176;SDS011;31511;46.176;9.874;2023-12-28T10:14:41;10.10;;;7.82;;
40176;SDS011;31511;46.176;9.874;2023-12-28T10:17:25;11.38;;;6.40;;
40176;SDS011;31511;46.176;9.874;2023-12-28T10:20:10;12.68;;;7.38;;
40176;SDS011;31511;46.176;9.874;2023-12-28T10:22:55;11.63;;;7.20;;
40176;SDS011;31511;46.176;9.874;2023-12-28T10:25:41;11.95;;;6.35;;
40176;SDS011;31511;46.176;9.874;2023-12-28T10:28:26;9.95;;;6.28;;
40176;SDS011;31511;46.176;9.874;2023-12-28T10:31:11;9.35;;;6.13;;
40176;SDS011;31511;46.176;9.874;2023-12-28T10:33:59;11.43;;;6.60;;
40176;SDS011;31511;46.176;9.874;2023-12-28T10:36:47;9.70;;;6.55;;
40176;SDS011;31511;46.176;9.874;2023-12-28T10:39:32;12.85;;;6.70;;
40176;SDS011;31511;46.176;9.874;2023-12-28T10:43:02;10.38;;;5.95;;
40176;SDS011;31511;46.176;9.874;2023-12-28T10:45:28;14.40;;;6.10;;
40176;SDS011;31511;46.176;9.874;2023-12-28T10:48:13;16.23;;;8.18;;
40176;SDS011;31511;46.176;9.874;2023-12-28T10:50:58;9.82;;;6.35;;
40176;SDS011;31511;46.176;9.874;2023-12-28T10:53:57;9.60;;;5.78;;
40176;SDS011;31511;46.176;9.874;2023-12-28T10:56:45;8.90;;;5.55;;
40176;SDS011;31511;46.176;9.874;2023-12-28T11:02:38;10.20;;;6.97;;
40176;SDS011;31511;46.176;9.874;2023-12-28T11:05:23;10.20;;;6.00;;
40176;SDS011;31511;46.176;9.874;2023-12-28T11:08:08;9.80;;;5.20;;
40176;SDS011;31511;46.176;9.874;2023-12-28T11:10:53;13.50;;;5.82;;
40176;SDS011;31511;46.176;9.874;2023-12-28T11:13:38;9.43;;;5.63;;
40176;SDS011;31511;46.176;9.874;2023-12-28T11:16:25;15.20;;;6.68;;
40176;SDS011;31511;46.176;9.874;2023-12-28T11:19:09;11.40;;;5.78;;
40176;SDS011;31511;46.176;9.874;2023-12-28T11:21:55;8.65;;;5.25;;
40176;SDS011;31511;46.176;9.874;2023-12-28T11:24:40;8.73;;;4.72;;
40176;SDS011;31511;46.176;9.874;2023-12-28T11:27:24;9.48;;;5.15;;
40176;SDS011;31511;46.176;9.874;2023-12-28T11:30:10;11.38;;;6.40;;
40176;SDS011;31511;46.176;9.874;2023-12-28T11:32:58;15.60;;;6.35;;
40176;SDS011;31511;46.176;9.874;2023-12-28T11:35:44;9.70;;;5.25;;
40176;SDS011;31511;46.176;9.874;2023-12-28T11:38:31;8.05;;;5.13;;
40176;SDS011;31511;46.176;9.874;2023-12-28T11:41:16;8.57;;;5.82;;
40176;SDS011;31511;46.176;9.874;2023-12-28T11:44:02;10.15;;;5.93;;
40176;SDS011;31511;46.176;9.874;2023-12-28T11:46:48;8.82;;;5.43;;
40176;SDS011;31511;46.176;9.874;2023-12-28T11:49:33;7.40;;;5.47;;
40176;SDS011;31511;46.176;9.874;2023-12-28T11:52:24;9.75;;;5.95;;
40176;SDS011;31511;46.176;9.874;2023-12-28T11:55:10;12.73;;;6.13;;
40176;SDS011;31511;46.176;9.874;2023-12-28T11:57:54;10.15;;;5.22;;
40176;SDS011;31511;46.176;9.874;2023-12-28T12:00:39;11.27;;;5.30;;
40176;SDS011;31511;46.176;9.874;2023-12-28T12:03:25;7.07;;;4.55;;
40176;SDS011;31511;46.176;9.874;2023-12-28T12:06:10;9.05;;;5.55;;
40176;SDS011;31511;46.176;9.874;2023-12-28T12:08:55;9.02;;;4.95;;
40176;SDS011;31511;46.176;9.874;2023-12-28T12:11:42;7.15;;;5.50;;
40176;SDS011;31511;46.176;9.874;2023-12-28T12:14:28;6.68;;;5.13;;
40176;SDS011;31511;46.176;9.874;2023-12-28T12:17:13;12.13;;;5.68;;
40176;SDS011;31511;46.176;9.874;2023-12-28T12:19:58;10.75;;;5.85;;
40176;SDS011;31511;46.176;9.874;2023-12-28T12:22:42;10.65;;;6.00;;
40176;SDS011;31511;46.176;9.874;2023-12-28T12:25:28;11.75;;;6.65;;
40176;SDS011;31511;46.176;9.874;2023-12-28T12:28:13;10.60;;;5.57;;
40176;SDS011;31511;46.176;9.874;2023-12-28T12:30:58;7.15;;;5.20;;
40176;SDS011;31511;46.176;9.874;2023-12-28T12:33:47;14.63;;;7.05;;
40176;SDS011;31511;46.176;9.874;2023-12-28T12:36:32;7.90;;;5.28;;
40176;SDS011;31511;46.176;9.874;2023-12-28T12:39:16;10.73;;;4.47;;
40176;SDS011;31511;46.176;9.874;2023-12-28T12:42:01;9.80;;;5.68;;
40176;SDS011;31511;46.176;9.874;2023-12-28T12:44:46;12.20;;;5.43;;
40176;SDS011;31511;46.176;9.874;2023-12-28T12:47:34;6.03;;;4.18;;
40176;SDS011;31511;46.176;9.874;2023-12-28T12:50:18;6.68;;;4.20;;
40176;SDS011;31511;46.176;9.874;2023-12-28T12:53:05;9.05;;;4.35;;
40176;SDS011;31511;46.176;9.874;2023-12-28T12:55:53;9.43;;;4.70;;
40176;SDS011;31511;46.176;9.874;2023-12-28T12:58:38;10.73;;;3.83;;
40176;SDS011;31511;46.176;9.874;2023-12-28T13:01:23;9.38;;;4.85;;
40176;SDS011;31511;46.176;9.874;2023-12-28T13:04:08;7.47;;;4.13;;
40176;SDS011;31511;46.176;9.874;2023-12-28T13:06:53;7.85;;;4.35;;
40176;SDS011;31511;46.176;9.874;2023-12-28T13:09:38;6.68;;;3.63;;
40176;SDS011;31511;46.176;9.874;2023-12-28T13:12:23;7.32;;;4.25;;
40176;SDS011;31511;46.176;9.874;2023-12-28T13:15:08;8.85;;;4.20;;
40176;SDS011;31511;46.176;9.874;2023-12-28T13:17:53;6.75;;;4.13;;
40176;SDS011;31511;46.176;9.874;2023-12-28T13:20:38;7.45;;;5.18;;
40176;SDS011;31511;46.176;9.874;2023-12-28T13:23:22;8.55;;;5.80;;
40176;SDS011;31511;46.176;9.874;2023-12-28T13:26:07;6.90;;;4.20;;
40176;SDS011;31511;46.176;9.874;2023-12-28T13:28:51;10.63;;;4.38;;
40176;SDS011;31511;46.176;9.874;2023-12-28T13:31:36;7.50;;;4.13;;
40176;SDS011;31511;46.176;9.874;2023-12-28T13:34:21;7.32;;;4.63;;
40176;SDS011;31511;46.176;9.874;2023-12-28T13:37:06;6.82;;;4.30;;
40176;SDS011;31511;46.176;9.874;2023-12-28T13:39:51;8.02;;;3.85;;
40176;SDS011;31511;46.176;9.874;2023-12-28T13:45:20;13.13;;;4.90;;
40176;SDS011;31511;46.176;9.874;2023-12-28T13:48:05;9.48;;;5.03;;
40176;SDS011;31511;46.176;9.874;2023-12-28T13:50:50;8.88;;;4.35;;
40176;SDS011;31511;46.176;9.874;2023-12-28T13:53:35;10.85;;;5.95;;
40176;SDS011;31511;46.176;9.874;2023-12-28T13:56:24;13.55;;;5.85;;
40176;SDS011;31511;46.176;9.874;2023-12-28T13:59:08;8.95;;;5.18;;
40176;SDS011;31511;46.176;9.874;2023-12-28T14:04:37;9.35;;;5.80;;
40176;SDS011;31511;46.176;9.874;2023-12-28T14:10:08;10.13;;;5.13;;
40176;SDS011;31511;46.176;9.874;2023-12-28T14:12:52;14.35;;;5.88;;
40176;SDS011;31511;46.176;9.874;2023-12-28T14:15:37;7.68;;;6.03;;
40176;SDS011;31511;46.176;9.874;2023-12-28T14:18:22;10.23;;;5.28;;
40176;SDS011;31511;46.176;9.874;2023-12-28T14:21:07;13.40;;;5.65;;
40176;SDS011;31511;46.176;9.874;2023-12-28T14:23:52;10.38;;;5.90;;
40176;SDS011;31511;46.176;9.874;2023-12-28T14:26:41;7.72;;;5.60;;
40176;SDS011;31511;46.176;9.874;2023-12-28T14:29:27;8.02;;;5.30;;
40176;SDS011;31511;46.176;9.874;2023-12-28T14:32:11;10.85;;;5.55;;
40176;SDS011;31511;46.176;9.874;2023-12-28T14:34:57;11.32;;;5.90;;
40176;SDS011;31511;46.176;9.874;2023-12-28T14:37:45;14.73;;;6.40;;
40176;SDS011;31511;46.176;9.874;2023-12-28T14:40:30;8.13;;;5.35;;
40176;SDS011;31511;46.176;9.874;2023-12-28T14:43:15;6.97;;;4.40;;
40176;SDS011;31511;46.176;9.874;2023-12-28T14:45:59;10.48;;;5.57;;
40176;SDS011;31511;46.176;9.874;2023-12-28T14:51:29;10.25;;;5.88;;
40176;SDS011;31511;46.176;9.874;2023-12-28T14:54:14;13.73;;;6.05;;
40176;SDS011;31511;46.176;9.874;2023-12-28T14:56:59;17.92;;;8.73;;
40176;SDS011;31511;46.176;9.874;2023-12-28T15:02:28;13.70;;;8.20;;
40176;SDS011;31511;46.176;9.874;2023-12-28T15:05:13;12.00;;;7.10;;
40176;SDS011;31511;46.176;9.874;2023-12-28T15:10:42;13.65;;;6.93;;
40176;SDS011;31511;46.176;9.874;2023-12-28T15:13:27;11.27;;;6.88;;
40176;SDS011;31511;46.176;9.874;2023-12-28T15:16:12;12.13;;;6.30;;
40176;SDS011;31511;46.176;9.874;2023-12-28T15:18:58;9.35;;;6.20;;
40176;SDS011;31511;46.176;9.874;2023-12-28T15:21:43;10.82;;;6.07;;
40176;SDS011;31511;46.176;9.874;2023-12-28T15:24:28;10.80;;;6.63;;
40176;SDS011;31511;46.176;9.874;2023-12-28T15:27:13;12.40;;;6.68;;
40176;SDS011;31511;46.176;9.874;2023-12-28T15:29:57;13.48;;;7.03;;
40176;SDS011;31511;46.176;9.874;2023-12-28T15:32:43;10.43;;;5.75;;
40176;SDS011;31511;46.176;9.874;2023-12-28T15:35:28;11.38;;;6.43;;
40176;SDS011;31511;46.176;9.874;2023-12-28T15:40:59;13.60;;;6.38;;
40176;SDS011;31511;46.176;9.874;2023-12-28T15:46:29;13.45;;;7.55;;
40176;SDS011;31511;46.176;9.874;2023-12-28T15:51:59;11.85;;;8.15;;
40176;SDS011;31511;46.176;9.874;2023-12-28T15:54:44;17.05;;;8.43;;
40176;SDS011;31511;46.176;9.874;2023-12-28T16:00:13;15.60;;;8.95;;
40176;SDS011;31511;46.176;9.874;2023-12-28T16:02:58;13.40;;;7.68;;
40176;SDS011;31511;46.176;9.874;2023-12-28T16:08:27;13.48;;;7.55;;
40176;SDS011;31511;46.176;9.874;2023-12-28T16:11:12;12.20;;;7.28;;
40176;SDS011;31511;46.176;9.874;2023-12-28T16:16:41;18.20;;;8.82;;
40176;SDS011;31511;46.176;9.874;2023-12-28T16:19:26;15.27;;;7.80;;
40176;SDS011;31511;46.176;9.874;2023-12-28T16:22:11;18.15;;;8.57;;
40176;SDS011;31511;46.176;9.874;2023-12-28T16:24:56;16.38;;;8.88;;
40176;SDS011;31511;46.176;9.874;2023-12-28T16:27:43;17.90;;;9.77;;
40176;SDS011;31511;46.176;9.874;2023-12-28T16:33:13;9.80;;;6.78;;
40176;SDS011;31511;46.176;9.874;2023-12-28T16:35:58;16.08;;;6.55;;
40176;SDS011;31511;46.176;9.874;2023-12-28T16:41:27;20.20;;;12.70;;
40176;SDS011;31511;46.176;9.874;2023-12-28T16:44:14;12.57;;;10.75;;
40176;SDS011;31511;46.176;9.874;2023-12-28T16:47:00;21.58;;;9.38;;
40176;SDS011;31511;46.176;9.874;2023-12-28T16:49:47;16.63;;;9.95;;
40176;SDS011;31511;46.176;9.874;2023-12-28T16:52:32;15.27;;;8.63;;
40176;SDS011;31511;46.176;9.874;2023-12-28T16:58:02;12.98;;;8.10;;
40176;SDS011;31511;46.176;9.874;2023-12-28T17:00:46;16.05;;;8.98;;
40176;SDS011;31511;46.176;9.874;2023-12-28T17:03:31;15.88;;;9.82;;
40176;SDS011;31511;46.176;9.874;2023-12-28T17:06:16;17.60;;;10.80;;
40176;SDS011;31511;46.176;9.874;2023-12-28T17:09:01;17.50;;;9.80;;
40176;SDS011;31511;46.176;9.874;2023-12-28T17:11:53;17.90;;;9.98;;
40176;SDS011;31511;46.176;9.874;2023-12-28T17:14:40;16.58;;;9.90;;
40176;SDS011;31511;46.176;9.874;2023-12-28T17:17:24;17.45;;;11.35;;
40176;SDS011;31511;46.176;9.874;2023-12-28T17:22:57;21.65;;;10.75;;
40176;SDS011;31511;46.176;9.874;2023-12-28T17:31:13;20.00;;;10.90;;
40176;SDS011;31511;46.176;9.874;2023-12-28T17:34:01;14.75;;;10.23;;
40176;SDS011;31511;46.176;9.874;2023-12-28T17:36:46;34.08;;;16.58;;
40176;SDS011;31511;46.176;9.874;2023-12-28T17:39:32;24.38;;;11.43;;
40176;SDS011;31511;46.176;9.874;2023-12-28T17:42:22;29.27;;;12.18;;
40176;SDS011;31511;46.176;9.874;2023-12-28T17:45:07;20.88;;;9.40;;
40176;SDS011;31511;46.176;9.874;2023-12-28T17:48:06;18.75;;;10.32;;
40176;SDS011;31511;46.176;9.874;2023-12-28T17:50:51;21.25;;;10.38;;
40176;SDS011;31511;46.176;9.874;2023-12-28T17:53:37;18.00;;;9.25;;
40176;SDS011;31511;46.176;9.874;2023-12-28T17:56:22;15.40;;;8.88;;
40176;SDS011;31511;46.176;9.874;2023-12-28T17:59:08;17.13;;;8.88;;
40176;SDS011;31511;46.176;9.874;2023-12-28T18:01:52;20.70;;;10.07;;
40176;SDS011;31511;46.176;9.874;2023-12-28T18:04:37;22.77;;;11.65;;
40176;SDS011;31511;46.176;9.874;2023-12-28T18:07:21;27.65;;;13.70;;
40176;SDS011;31511;46.176;9.874;2023-12-28T18:10:07;49.22;;;17.50;;
40176;SDS011;31511;46.176;9.874;2023-12-28T18:12:52;19.70;;;11.85;;
40176;SDS011;31511;46.176;9.874;2023-12-28T18:15:37;26.17;;;13.10;;
40176;SDS011;31511;46.176;9.874;2023-12-28T18:18:22;26.67;;;14.77;;
40176;SDS011;31511;46.176;9.874;2023-12-28T18:23:51;24.30;;;14.57;;
40176;SDS011;31511;46.176;9.874;2023-12-28T18:26:36;34.40;;;15.93;;
40176;SDS011;31511;46.176;9.874;2023-12-28T18:29:20;24.88;;;12.77;;
40176;SDS011;31511;46.176;9.874;2023-12-28T18:34:49;21.88;;;11.90;;
40176;SDS011;31511;46.176;9.874;2023-12-28T18:37:35;25.10;;;13.75;;
40176;SDS011;31511;46.176;9.874;2023-12-28T18:40:22;25.98;;;13.52;;
40176;SDS011;31511;46.176;9.874;2023-12-28T18:43:07;27.60;;;13.90;;
40176;SDS011;31511;46.176;9.874;2023-12-28T18:48:37;22.92;;;11.65;;
40176;SDS011;31511;46.176;9.874;2023-12-28T18:54:07;23.30;;;13.82;;
40176;SDS011;31511;46.176;9.874;2023-12-28T18:56:51;24.42;;;14.30;;
40176;SDS011;31511;46.176;9.874;2023-12-28T19:02:21;28.60;;;14.00;;
40176;SDS011;31511;46.176;9.874;2023-12-28T19:05:07;29.83;;;17.27;;
40176;SDS011;31511;46.176;9.874;2023-12-28T19:07:52;34.58;;;20.50;;
40176;SDS011;31511;46.176;9.874;2023-12-28T19:10:37;29.02;;;14.43;;
40176;SDS011;31511;46.176;9.874;2023-12-28T19:16:07;30.58;;;16.10;;
40176;SDS011;31511;46.176;9.874;2023-12-28T19:19:00;24.55;;;13.82;;
40176;SDS011;31511;46.176;9.874;2023-12-28T19:21:45;18.98;;;12.90;;
40176;SDS011;31511;46.176;9.874;2023-12-28T19:24:30;21.02;;;12.98;;
40176;SDS011;31511;46.176;9.874;2023-12-28T19:27:15;21.63;;;13.82;;
40176;SDS011;31511;46.176;9.874;2023-12-28T19:30:00;24.73;;;13.52;;
40176;SDS011;31511;46.176;9.874;2023-12-28T19:35:30;26.02;;;15.95;;